Time;durP1;ratioP1;P1;durP2;ratioP2;P2;SDS_P1;SDS_P2;PMS_P1;PMS_P2;Temp;Humidity;BMP_temperature;BMP_pressure;BME280_temperature;BME280_humidity;BME280_pressure;Samples;Min_cycle;Max_cycle;Signal;HPM_P1;HPM_P2
2023/10/19 00:00:44;;;;;;;12.98;10.77;;;;;21.20;98356.00;;;;2081160;28;20213;-66
2023/10/19 00:01:44;;;;;;;13.35;10.55;;;;;21.20;98349.00;;;;2063858;28;20698;-66
2023/10/19 00:02:51;;;;;;;11.87;10.10;;;;;21.20;98318.00;;;;2066687;28;20210;-66
2023/10/19 00:03:56;;;;;;;10.85;9.30;;;;;21.20;98339.00;;;;2064250;28;20233;-66
2023/10/19 00:04:56;;;;;;;13.25;9.77;;;;;21.20;98340.00;;;;2078453;28;20216;-66
2023/10/19 00:05:57;;;;;;;11.57;10.17;;;;;21.20;98339.00;;;;2072117;28;20223;-66
2023/10/19 00:06:57;;;;;;;10.75;9.65;;;;;21.20;98339.00;;;;2068486;28;20221;-66
2023/10/19 00:08:15;;;;;;;12.00;8.90;;;;;21.20;98342.00;;;;2071282;28;20221;-66
2023/10/19 00:09:15;;;;;;;10.88;9.68;;;;;21.20;98347.00;;;;2058545;28;20744;-66
2023/10/19 00:10:16;;;;;;;10.40;8.80;;;;;21.20;98350.00;;;;2054253;28;20208;-66
2023/10/19 00:11:24;;;;;;;10.80;8.73;;;;;21.20;98348.00;;;;2059922;28;20261;-66
2023/10/19 00:12:24;;;;;;;11.40;8.82;;;;;21.10;98345.00;;;;2068603;28;20219;-66
2023/10/19 00:13:25;;;;;;;10.57;8.60;;;;;21.10;98352.00;;;;2070564;28;20221;-66
2023/10/19 00:14:25;;;;;;;11.93;9.60;;;;;21.10;98342.00;;;;2059472;28;20219;-66
2023/10/19 00:15:31;;;;;;;12.37;9.03;;;;;21.10;98344.00;;;;2070671;28;20297;-66
2023/10/19 00:16:35;;;;;;;10.40;8.82;;;;;21.10;98336.00;;;;2064800;28;21045;-66
2023/10/19 00:17:38;;;;;;;10.48;8.75;;;;;21.10;98338.00;;;;2070461;28;20238;-66
2023/10/19 00:18:42;;;;;;;11.68;8.38;;;;;21.10;98343.00;;;;2057669;28;20213;-66
2023/10/19 00:19:57;;;;;;;10.02;9.02;;;;;21.10;98339.00;;;;2065881;28;20214;-66
2023/10/19 00:21:11;;;;;;;8.82;7.68;;;;;21.10;98337.00;;;;2064420;28;20558;-66
2023/10/19 00:22:16;;;;;;;10.43;8.10;;;;;21.10;98332.00;;;;2068864;28;20210;-66
2023/10/19 00:23:18;;;;;;;11.68;7.93;;;;;21.20;98329.00;;;;2066318;28;20210;-66
2023/10/19 00:24:22;;;;;;;9.18;7.82;;;;;21.20;98339.00;;;;2073856;28;20212;-65
2023/10/19 00:25:23;;;;;;;9.60;8.43;;;;;21.10;98323.00;;;;2078886;28;20209;-65
2023/10/19 00:26:25;;;;;;;9.50;7.50;;;;;21.10;98332.00;;;;2064765;28;20211;-65
2023/10/19 00:27:27;;;;;;;10.20;7.30;;;;;21.10;98332.00;;;;2071737;28;20214;-65
2023/10/19 00:28:28;;;;;;;10.45;8.05;;;;;21.20;98334.00;;;;2070648;28;20210;-65
2023/10/19 00:29:31;;;;;;;10.17;8.57;;;;;21.10;98334.00;;;;2062379;28;20728;-65
2023/10/19 00:30:35;;;;;;;8.48;7.07;;;;;21.10;98335.00;;;;2065272;28;20806;-65
2023/10/19 00:31:40;;;;;;;9.07;7.57;;;;;21.20;98332.00;;;;2070943;28;20222;-65
2023/10/19 00:32:40;;;;;;;9.05;7.50;;;;;21.10;98333.00;;;;2072083;28;20221;-65
2023/10/19 00:33:41;;;;;;;8.90;7.43;;;;;21.10;98328.00;;;;2061818;28;20924;-65
2023/10/19 00:34:43;;;;;;;9.50;7.53;;;;;21.10;98323.00;;;;2069943;28;20713;-65
2023/10/19 00:36:06;;;;;;;7.55;6.85;;;;;21.10;98329.00;;;;2065052;28;20588;-65
2023/10/19 00:37:10;;;;;;;9.05;6.95;;;;;21.10;98328.00;;;;2069473;28;20690;-65
2023/10/19 00:39:40;;;;;;;7.78;6.65;;;;;21.10;98329.00;;;;2067346;28;20222;-65
2023/10/19 00:40:41;;;;;;;8.15;6.95;;;;;21.10;98328.00;;;;2066362;28;20219;-65
2023/10/19 00:41:42;;;;;;;6.75;6.05;;;;;21.10;98330.00;;;;2062734;28;20211;-65
2023/10/19 00:42:46;;;;;;;8.05;6.90;;;;;21.10;98331.00;;;;2058861;28;20266;-65
2023/10/19 00:43:47;;;;;;;7.90;6.47;;;;;21.10;98335.00;;;;2054053;28;20211;-66
2023/10/19 00:44:50;;;;;;;8.02;6.28;;;;;21.10;98335.00;;;;2061339;28;20215;-66
2023/10/19 00:45:52;;;;;;;7.60;6.80;;;;;21.10;98335.00;;;;2063485;28;20298;-66
2023/10/19 00:47:03;;;;;;;8.90;6.85;;;;;21.10;98333.00;;;;2062237;28;20424;-66
2023/10/19 00:48:04;;;;;;;8.63;6.80;;;;;21.10;98324.00;;;;2063398;28;20277;-66
2023/10/19 00:49:06;;;;;;;8.67;6.27;;;;;21.10;98329.00;;;;2056808;28;20789;-66
2023/10/19 00:50:12;;;;;;;8.57;6.18;;;;;21.10;98326.00;;;;2063180;28;20643;-66
2023/10/19 00:52:32;;;;;;;7.80;6.40;;;;;21.10;98333.00;;;;2063045;28;20770;-66
2023/10/19 00:53:37;;;;;;;8.00;6.13;;;;;21.10;98286.00;;;;2061163;28;20214;-66
2023/10/19 00:54:50;;;;;;;7.53;6.00;;;;;21.10;98326.00;;;;2082551;28;20272;-66
2023/10/19 00:55:52;;;;;;;7.25;6.00;;;;;21.10;98284.00;;;;2083595;28;20201;-66
2023/10/19 00:56:52;;;;;;;6.85;6.10;;;;;21.10;98325.00;;;;2069918;28;20215;-66
2023/10/19 00:57:54;;;;;;;8.13;5.90;;;;;21.10;98323.00;;;;2070692;28;20287;-66
2023/10/19 00:59:00;;;;;;;7.80;5.78;;;;;21.10;98320.00;;;;2058409;28;20572;-66
2023/10/19 01:00:11;;;;;;;7.10;6.32;;;;;21.10;98326.00;;;;2071181;28;20222;-66
2023/10/19 01:01:11;;;;;;;7.25;5.45;;;;;21.10;98285.00;;;;2068973;28;20233;-66
2023/10/19 01:03:31;;;;;;;6.10;5.50;;;;;21.10;98328.00;;;;2067126;28;20238;-66
2023/10/19 01:04:34;;;;;;;7.18;5.88;;;;;21.10;98318.00;;;;2061549;28;20254;-66
2023/10/19 01:05:37;;;;;;;8.40;6.10;;;;;21.10;98316.00;;;;2062026;28;20226;-66
2023/10/19 01:06:37;;;;;;;6.78;6.07;;;;;21.10;98329.00;;;;2063885;28;20234;-66
2023/10/19 01:07:38;;;;;;;5.97;5.03;;;;;21.10;98330.00;;;;2071232;28;20215;-66
2023/10/19 01:08:41;;;;;;;6.63;5.50;;;;;21.10;98333.00;;;;2057451;28;20245;-66
2023/10/19 01:09:45;;;;;;;8.10;6.15;;;;;21.10;98321.00;;;;2070660;28;20464;-66
2023/10/19 01:10:46;;;;;;;6.55;5.65;;;;;21.10;98283.00;;;;2069038;28;20218;-66
2023/10/19 01:11:49;;;;;;;7.13;5.37;;;;;21.10;98317.00;;;;2062633;28;20213;-66
2023/10/19 01:12:51;;;;;;;7.50;5.45;;;;;21.10;98321.00;;;;2062774;28;20452;-66
2023/10/19 01:13:51;;;;;;;6.60;5.55;;;;;21.10;98322.00;;;;2057569;28;20230;-66
2023/10/19 01:15:07;;;;;;;6.77;4.83;;;;;21.10;98323.00;;;;2065982;28;20252;-66
2023/10/19 01:16:15;;;;;;;6.22;5.38;;;;;21.10;98309.00;;;;2069074;28;20222;-66
2023/10/19 01:17:18;;;;;;;5.53;4.75;;;;;21.10;98311.00;;;;2070736;28;20226;-66
2023/10/19 01:18:18;;;;;;;6.57;5.38;;;;;21.10;98318.00;;;;2064719;28;20207;-66
2023/10/19 01:19:20;;;;;;;6.20;5.23;;;;;21.10;98317.00;;;;2054182;28;20242;-66
2023/10/19 01:21:37;;;;;;;5.30;4.80;;;;;21.10;98302.00;;;;2072970;28;20217;-66
2023/10/19 01:22:38;;;;;;;6.88;4.95;;;;;21.10;98316.00;;;;2071347;28;20248;-66
2023/10/19 01:23:38;;;;;;;6.00;5.00;;;;;21.00;98314.00;;;;2068535;28;20212;-66
2023/10/19 01:24:42;;;;;;;6.37;4.97;;;;;21.10;98325.00;;;;2072209;28;20555;-66
2023/10/19 01:25:59;;;;;;;5.30;4.80;;;;;21.10;98313.00;;;;2071985;28;20218;-65
2023/10/19 01:27:00;;;;;;;5.40;4.90;;;;;21.00;98320.00;;;;2071707;28;20228;-65
2023/10/19 01:28:07;;;;;;;5.90;4.90;;;;;21.00;98319.00;;;;2071818;28;20222;-65
2023/10/19 01:29:14;;;;;;;5.85;4.93;;;;;21.00;98310.00;;;;2070871;28;20249;-65
2023/10/19 01:30:17;;;;;;;5.82;4.65;;;;;21.00;98316.00;;;;2074543;28;20221;-65
2023/10/19 01:32:30;;;;;;;5.07;4.47;;;;;21.00;98313.00;;;;2073675;28;20296;-65
2023/10/19 01:33:30;;;;;;;4.93;4.23;;;;;21.00;98306.00;;;;2060715;28;20219;-65
2023/10/19 01:34:33;;;;;;;5.57;4.60;;;;;21.00;98311.00;;;;2071641;28;20272;-65
2023/10/19 01:36:54;;;;;;;4.90;4.28;;;;;21.00;98312.00;;;;2068584;28;20676;-65
2023/10/19 01:37:54;;;;;;;5.30;4.80;;;;;21.00;98304.00;;;;2067726;28;20257;-65
2023/10/19 01:38:55;;;;;;;5.80;4.37;;;;;21.00;98310.00;;;;2066673;28;20210;-65
2023/10/19 01:39:56;;;;;;;4.70;4.20;;;;;21.10;98311.00;;;;2074236;28;20225;-65
2023/10/19 01:41:01;;;;;;;5.88;4.32;;;;;21.10;98311.00;;;;2076090;28;20292;-65
2023/10/19 01:42:01;;;;;;;5.72;4.47;;;;;21.00;98312.00;;;;2068776;28;20213;-65
2023/10/19 01:43:02;;;;;;;5.40;4.30;;;;;21.00;98304.00;;;;2072598;28;20305;-65
2023/10/19 01:44:13;;;;;;;4.97;4.10;;;;;21.00;98301.00;;;;2062269;28;20683;-65
2023/10/19 01:45:14;;;;;;;5.30;4.50;;;;;21.00;98318.00;;;;2071956;28;20833;-65
2023/10/19 01:46:23;;;;;;;6.20;4.25;;;;;21.00;98318.00;;;;2070896;28;20207;-65
2023/10/19 01:47:24;;;;;;;4.68;3.97;;;;;21.00;98317.00;;;;2072030;28;20206;-65
2023/10/19 01:48:33;;;;;;;6.10;4.17;;;;;21.00;98312.00;;;;2068820;28;20250;-65
2023/10/19 01:49:33;;;;;;;6.28;4.22;;;;;21.00;98313.00;;;;2070522;28;20492;-65
2023/10/19 01:50:38;;;;;;;4.00;3.40;;;;;21.00;98315.00;;;;2072598;28;20573;-65
2023/10/19 01:51:39;;;;;;;4.05;3.65;;;;;21.00;98318.00;;;;2070557;28;20260;-65
2023/10/19 01:52:40;;;;;;;4.00;3.60;;;;;21.00;98316.00;;;;2070082;28;20268;-65
2023/10/19 01:53:43;;;;;;;4.43;4.03;;;;;21.00;98312.00;;;;2061988;28;20210;-65
2023/10/19 01:54:43;;;;;;;4.53;3.88;;;;;21.00;98316.00;;;;2068440;28;20298;-65
2023/10/19 01:55:47;;;;;;;4.20;3.80;;;;;21.00;98315.00;;;;2069958;28;20811;-65
2023/10/19 01:56:50;;;;;;;3.90;3.50;;;;;21.00;98309.00;;;;2066358;28;20221;-66
2023/10/19 01:57:51;;;;;;;4.22;3.83;;;;;21.00;98303.00;;;;2069541;28;20210;-66
2023/10/19 01:59:01;;;;;;;5.20;3.83;;;;;21.00;98301.00;;;;2060131;28;20244;-66
2023/10/19 02:00:10;;;;;;;3.83;3.42;;;;;21.00;98283.00;;;;2070827;28;20217;-66
2023/10/19 02:01:20;;;;;;;4.03;3.63;;;;;21.00;98302.00;;;;2067274;28;20732;-65
2023/10/19 02:02:21;;;;;;;4.25;3.85;;;;;21.00;98305.00;;;;2072602;28;20222;-65
2023/10/19 02:03:27;;;;;;;4.50;3.90;;;;;21.00;98311.00;;;;2062660;28;20225;-65
2023/10/19 02:04:28;;;;;;;4.72;4.22;;;;;21.00;98305.00;;;;2056403;28;20525;-65
2023/10/19 02:05:39;;;;;;;4.10;3.50;;;;;21.00;98301.00;;;;2066311;28;20242;-65
2023/10/19 02:06:46;;;;;;;4.35;3.63;;;;;21.00;98305.00;;;;2071183;28;20214;-65
2023/10/19 02:07:46;;;;;;;3.88;3.47;;;;;21.00;98307.00;;;;2066236;28;20309;-65
2023/10/19 02:08:56;;;;;;;4.53;3.73;;;;;21.00;98309.00;;;;2057825;28;20257;-65
2023/10/19 02:09:57;;;;;;;5.10;3.65;;;;;21.00;98298.00;;;;2057308;28;20486;-65
2023/10/19 02:10:57;;;;;;;4.67;3.60;;;;;21.00;98299.00;;;;2064347;28;20679;-66
2023/10/19 02:11:58;;;;;;;3.77;3.03;;;;;21.00;98302.00;;;;2064430;28;20241;-66
2023/10/19 02:12:58;;;;;;;4.70;3.93;;;;;21.00;98302.00;;;;2063520;28;20286;-66
2023/10/19 02:13:59;;;;;;;4.50;3.37;;;;;21.00;98297.00;;;;2056550;28;20210;-66
2023/10/19 02:15:00;;;;;;;5.47;3.50;;;;;21.00;98298.00;;;;2067297;28;20689;-66
2023/10/19 02:16:00;;;;;;;3.87;3.47;;;;;21.00;98301.00;;;;2071848;28;20246;-66
2023/10/19 02:17:02;;;;;;;3.40;3.10;;;;;21.00;98298.00;;;;2071074;28;20267;-66
2023/10/19 02:18:03;;;;;;;3.95;3.22;;;;;21.00;98300.00;;;;2069464;28;20217;-66
2023/10/19 02:19:03;;;;;;;3.70;3.30;;;;;21.00;98298.00;;;;2062744;28;20218;-66
2023/10/19 02:20:24;;;;;;;3.87;3.50;;;;;21.00;98287.00;;;;2067691;28;20248;-66
2023/10/19 02:21:30;;;;;;;4.05;3.30;;;;;21.00;98301.00;;;;2071214;28;20315;-66
2023/10/19 02:22:30;;;;;;;3.47;3.17;;;;;21.00;98290.00;;;;2080755;28;22575;-66
2023/10/19 02:23:32;;;;;;;4.03;3.23;;;;;21.00;98286.00;;;;2076277;28;20228;-66
2023/10/19 02:24:32;;;;;;;3.75;3.25;;;;;21.00;98291.00;;;;2070446;28;20309;-66
2023/10/19 02:25:36;;;;;;;4.63;3.60;;;;;21.00;98292.00;;;;2072165;28;20694;-66
2023/10/19 02:26:37;;;;;;;3.15;2.75;;;;;21.00;98295.00;;;;2070964;28;20218;-64
2023/10/19 02:27:38;;;;;;;3.13;2.83;;;;;21.00;98289.00;;;;2068253;28;20695;-64
2023/10/19 02:28:38;;;;;;;3.80;3.40;;;;;21.00;98290.00;;;;2062655;28;20253;-64
2023/10/19 02:29:39;;;;;;;3.90;3.10;;;;;21.00;98291.00;;;;2071724;28;20261;-64
2023/10/19 02:30:42;;;;;;;4.40;3.10;;;;;21.00;98286.00;;;;2071745;28;20280;-65
2023/10/19 02:31:42;;;;;;;3.75;3.30;;;;;21.00;98293.00;;;;2069234;28;20214;-65
2023/10/19 02:32:43;;;;;;;2.67;2.47;;;;;21.00;98296.00;;;;2084141;28;20613;-65
2023/10/19 02:33:46;;;;;;;4.53;3.07;;;;;21.00;98284.00;;;;2061280;28;20660;-65
2023/10/19 02:34:47;;;;;;;5.35;3.28;;;;;21.00;98293.00;;;;2065203;28;20209;-65
2023/10/19 02:35:47;;;;;;;5.57;3.60;;;;;21.00;98292.00;;;;2065663;28;20203;-65
2023/10/19 02:36:48;;;;;;;4.73;3.50;;;;;21.00;98284.00;;;;2065800;28;20222;-65
2023/10/19 02:37:48;;;;;;;3.20;2.43;;;;;21.00;98290.00;;;;2064432;28;20518;-65
2023/10/19 02:38:48;;;;;;;3.33;2.80;;;;;21.00;98292.00;;;;2060344;28;20225;-66
2023/10/19 02:39:49;;;;;;;4.43;3.03;;;;;21.00;98286.00;;;;2071655;28;20222;-66
2023/10/19 02:40:49;;;;;;;3.53;2.40;;;;;21.00;98283.00;;;;2070888;28;20249;-66
2023/10/19 02:41:50;;;;;;;3.30;2.90;;;;;21.00;98279.00;;;;2070475;28;20685;-66
2023/10/19 02:42:50;;;;;;;3.67;2.80;;;;;21.00;98288.00;;;;2071129;28;20210;-66
2023/10/19 02:44:09;;;;;;;3.20;2.90;;;;;21.00;98279.00;;;;2075596;28;20282;-66
2023/10/19 02:45:10;;;;;;;2.90;2.50;;;;;21.00;98275.00;;;;2078115;28;20304;-66
2023/10/19 02:46:10;;;;;;;3.40;2.63;;;;;21.00;98282.00;;;;2069069;28;20217;-66
2023/10/19 02:47:11;;;;;;;3.63;2.90;;;;;21.00;98278.00;;;;2069186;28;20457;-65
2023/10/19 02:48:12;;;;;;;3.07;2.50;;;;;21.00;98279.00;;;;2067723;28;20215;-65
2023/10/19 02:49:14;;;;;;;3.08;2.75;;;;;21.00;98279.00;;;;2062123;28;20655;-65
2023/10/19 02:50:16;;;;;;;2.88;2.25;;;;;21.00;98263.00;;;;2071024;28;20698;-65
2023/10/19 02:51:19;;;;;;;3.35;2.60;;;;;21.00;98269.00;;;;2067760;28;20289;-65
2023/10/19 02:52:19;;;;;;;3.33;2.85;;;;;21.00;98272.00;;;;2071981;28;20689;-65
2023/10/19 02:53:19;;;;;;;2.87;2.57;;;;;21.00;98270.00;;;;2071418;28;20234;-65
2023/10/19 02:54:22;;;;;;;2.70;2.40;;;;;21.00;98282.00;;;;2061964;28;20232;-65
2023/10/19 02:55:24;;;;;;;3.97;2.47;;;;;21.00;98269.00;;;;2065286;28;20237;-65
2023/10/19 02:56:26;;;;;;;4.15;2.70;;;;;21.00;98281.00;;;;2066700;28;20228;-65
2023/10/19 02:57:30;;;;;;;2.70;2.50;;;;;21.00;98273.00;;;;2070858;28;20726;-65
2023/10/19 02:58:31;;;;;;;4.70;2.20;;;;;21.00;98273.00;;;;2060554;28;20248;-65
2023/10/19 02:59:32;;;;;;;2.97;2.70;;;;;21.00;98278.00;;;;2071982;28;20728;-66
2023/10/19 03:00:36;;;;;;;3.20;2.50;;;;;21.00;98274.00;;;;2065231;28;20695;-66
2023/10/19 03:01:38;;;;;;;2.58;2.38;;;;;21.00;98268.00;;;;2071405;28;20268;-66
2023/10/19 03:02:39;;;;;;;3.45;2.38;;;;;21.00;98274.00;;;;2070294;28;20226;-66
2023/10/19 03:03:43;;;;;;;4.10;2.40;;;;;21.00;98271.00;;;;2060967;28;20972;-66
2023/10/19 03:04:45;;;;;;;4.15;2.60;;;;;21.00;98278.00;;;;2070094;28;20225;-66
2023/10/19 03:05:46;;;;;;;3.13;2.60;;;;;21.00;98278.00;;;;2069740;28;20748;-66
2023/10/19 03:06:47;;;;;;;2.80;2.50;;;;;21.00;98270.00;;;;2071192;28;20241;-66
2023/10/19 03:07:48;;;;;;;2.80;2.10;;;;;21.00;98268.00;;;;2075628;28;20259;-66
2023/10/19 03:08:57;;;;;;;3.17;2.20;;;;;21.00;98272.00;;;;2060499;28;20238;-66
2023/10/19 03:10:01;;;;;;;2.78;2.30;;;;;21.00;98282.00;;;;2066444;28;20215;-66
2023/10/19 03:11:04;;;;;;;3.33;2.10;;;;;21.00;98278.00;;;;2071862;28;20549;-66
2023/10/19 03:12:09;;;;;;;3.47;2.50;;;;;21.00;98279.00;;;;2069566;28;20743;-66
2023/10/19 03:13:09;;;;;;;5.10;2.70;;;;;21.00;98280.00;;;;2066890;28;20716;-66
2023/10/19 03:14:11;;;;;;;2.20;2.00;;;;;20.90;98283.00;;;;2059710;28;20218;-66
2023/10/19 03:15:13;;;;;;;2.55;2.17;;;;;20.90;98272.00;;;;2067780;28;20225;-66
2023/10/19 03:16:15;;;;;;;3.53;2.55;;;;;21.00;98281.00;;;;2068502;28;20232;-66
2023/10/19 03:17:15;;;;;;;3.40;2.13;;;;;21.00;98273.00;;;;2069068;28;20237;-66
2023/10/19 03:18:16;;;;;;;3.43;2.17;;;;;21.00;98274.00;;;;2068135;28;20654;-66
2023/10/19 03:19:16;;;;;;;2.00;1.70;;;;;21.00;98275.00;;;;2057525;28;20238;-66
2023/10/19 03:20:23;;;;;;;3.03;2.47;;;;;21.00;98272.00;;;;2068410;28;20221;-66
2023/10/19 03:21:26;;;;;;;2.33;1.90;;;;;21.00;98267.00;;;;2068577;28;20299;-66
2023/10/19 03:22:27;;;;;;;2.50;2.20;;;;;20.90;98275.00;;;;2071731;28;20214;-66
2023/10/19 03:23:28;;;;;;;2.87;2.20;;;;;21.00;98273.00;;;;2071766;28;20210;-66
2023/10/19 03:24:42;;;;;;;2.30;1.93;;;;;20.90;98279.00;;;;2060810;28;20512;-66
2023/10/19 03:25:55;;;;;;;2.53;2.33;;;;;21.00;98271.00;;;;2064315;28;20454;-65
2023/10/19 03:26:59;;;;;;;3.50;2.65;;;;;20.90;98271.00;;;;2065602;28;20211;-65
2023/10/19 03:28:06;;;;;;;3.88;2.20;;;;;20.90;98265.00;;;;2071956;28;20285;-65
2023/10/19 03:29:15;;;;;;;2.10;1.70;;;;;21.00;98279.00;;;;2057010;28;20286;-65
2023/10/19 03:30:19;;;;;;;3.67;1.98;;;;;21.00;98275.00;;;;2071892;28;20297;-65
2023/10/19 03:31:20;;;;;;;3.80;2.20;;;;;21.00;98260.00;;;;2066004;28;20211;-65
2023/10/19 03:32:28;;;;;;;3.08;2.13;;;;;20.90;98260.00;;;;2072887;28;20229;-65
2023/10/19 03:33:28;;;;;;;2.60;1.90;;;;;21.00;98267.00;;;;2072339;28;20705;-65
2023/10/19 03:34:32;;;;;;;3.33;1.80;;;;;21.00;98270.00;;;;2061040;28;20269;-65
2023/10/19 03:35:34;;;;;;;3.15;2.30;;;;;20.90;98260.00;;;;2070586;28;20276;-65
2023/10/19 03:36:35;;;;;;;3.60;2.30;;;;;20.90;98260.00;;;;2068942;28;20580;-65
2023/10/19 03:37:36;;;;;;;2.33;1.87;;;;;20.90;98263.00;;;;2070577;28;20223;-65
2023/10/19 03:38:37;;;;;;;2.03;1.80;;;;;20.90;98263.00;;;;2056434;28;20219;-65
2023/10/19 03:39:37;;;;;;;2.87;2.13;;;;;20.90;98257.00;;;;2070870;28;20468;-65
2023/10/19 03:40:38;;;;;;;2.37;1.90;;;;;20.90;98259.00;;;;2065511;28;20222;-65
2023/10/19 03:41:42;;;;;;;2.30;1.70;;;;;20.90;98263.00;;;;2071001;28;20465;-65
2023/10/19 03:42:43;;;;;;;2.60;2.00;;;;;20.90;98254.00;;;;2068223;28;20219;-65
2023/10/19 03:43:45;;;;;;;3.65;1.80;;;;;20.90;98255.00;;;;2054215;28;20295;-65
2023/10/19 03:45:52;;;;;;;4.18;2.28;;;;;21.00;98212.00;;;;2063615;28;20221;-65
2023/10/19 03:46:53;;;;;;;3.28;1.90;;;;;20.90;98247.00;;;;2081214;28;20332;-65
2023/10/19 03:47:55;;;;;;;2.33;1.83;;;;;20.90;98257.00;;;;2080867;28;20976;-65
2023/10/19 03:49:03;;;;;;;2.70;2.15;;;;;20.90;98255.00;;;;2055404;28;20280;-65
2023/10/19 03:50:06;;;;;;;2.60;2.10;;;;;21.00;98242.00;;;;2068320;28;20286;-65
2023/10/19 03:51:11;;;;;;;2.65;2.28;;;;;20.90;98246.00;;;;2071559;28;20198;-66
2023/10/19 03:53:12;;;;;;;2.13;1.93;;;;;20.90;98253.00;;;;2070585;28;20269;-66
2023/10/19 03:54:21;;;;;;;2.10;1.67;;;;;20.90;98237.00;;;;2071804;28;20216;-66
2023/10/19 03:55:23;;;;;;;2.28;1.95;;;;;20.90;98251.00;;;;2081139;28;20213;-66
2023/10/19 03:56:24;;;;;;;3.75;1.80;;;;;20.90;98249.00;;;;2070263;28;20226;-66
2023/10/19 03:57:29;;;;;;;2.40;1.80;;;;;20.90;98247.00;;;;2064775;28;20638;-66
2023/10/19 03:58:30;;;;;;;2.45;1.92;;;;;20.90;98248.00;;;;2067032;28;20679;-66
2023/10/19 03:59:33;;;;;;;3.10;1.90;;;;;20.90;98246.00;;;;2080387;28;20215;-65
2023/10/19 04:00:34;;;;;;;2.20;1.55;;;;;21.00;98247.00;;;;2078158;28;20225;-65
2023/10/19 04:01:34;;;;;;;2.47;1.43;;;;;21.00;98245.00;;;;2069821;28;20683;-65
2023/10/19 04:02:37;;;;;;;1.87;1.73;;;;;20.90;98247.00;;;;2069926;28;20222;-65
2023/10/19 04:03:38;;;;;;;2.17;1.70;;;;;20.90;98247.00;;;;2070406;28;20272;-65
2023/10/19 04:04:39;;;;;;;2.60;1.47;;;;;20.90;98241.00;;;;2077968;28;20225;-65
2023/10/19 04:05:41;;;;;;;2.55;1.63;;;;;20.90;98239.00;;;;2070457;28;20307;-65
2023/10/19 04:06:46;;;;;;;3.70;1.70;;;;;20.90;98251.00;;;;2070638;28;20232;-65
2023/10/19 04:07:49;;;;;;;1.70;1.50;;;;;21.00;98237.00;;;;2071366;28;20229;-65
2023/10/19 04:08:50;;;;;;;2.25;1.75;;;;;20.90;98241.00;;;;2062492;28;20233;-65
2023/10/19 04:12:18;;;;;;;2.65;1.73;;;;;20.90;98241.00;;;;2066282;28;20214;-65
2023/10/19 04:13:19;;;;;;;1.70;1.60;;;;;20.90;98240.00;;;;2071583;28;20218;-65
2023/10/19 04:14:21;;;;;;;2.23;1.57;;;;;20.90;98240.00;;;;2071437;28;20217;-65
2023/10/19 04:15:21;;;;;;;3.78;2.00;;;;;20.90;98238.00;;;;2074301;28;20452;-65
2023/10/19 04:16:22;;;;;;;2.50;1.90;;;;;20.90;98238.00;;;;2066182;28;20629;-65
2023/10/19 04:17:23;;;;;;;2.30;1.60;;;;;20.90;98231.00;;;;2071648;28;20272;-65
2023/10/19 04:18:25;;;;;;;1.92;1.35;;;;;20.90;98243.00;;;;2070803;28;20218;-65
2023/10/19 04:19:28;;;;;;;2.35;1.65;;;;;20.90;98240.00;;;;2066201;28;20264;-65
2023/10/19 04:20:30;;;;;;;2.50;1.70;;;;;20.90;98243.00;;;;2078904;28;20214;-65
2023/10/19 04:21:30;;;;;;;2.50;1.80;;;;;20.90;98231.00;;;;2069594;28;20233;-65
2023/10/19 04:22:30;;;;;;;2.30;1.63;;;;;20.90;98233.00;;;;2069617;28;20245;-65
2023/10/19 04:23:34;;;;;;;2.03;1.57;;;;;20.90;98240.00;;;;2061862;28;20245;-65
2023/10/19 04:24:35;;;;;;;2.78;1.60;;;;;20.90;98236.00;;;;2069588;28;20218;-65
2023/10/19 04:25:35;;;;;;;1.90;1.47;;;;;20.90;98229.00;;;;2070706;28;21161;-65
2023/10/19 04:26:37;;;;;;;1.77;1.53;;;;;20.90;98230.00;;;;2068270;28;20682;-66
2023/10/19 04:27:37;;;;;;;1.98;1.50;;;;;20.90;98226.00;;;;2069040;28;20237;-66
2023/10/19 04:28:45;;;;;;;1.67;1.37;;;;;20.90;98230.00;;;;2060831;28;20217;-66
2023/10/19 04:29:49;;;;;;;2.20;1.50;;;;;20.90;98224.00;;;;2072348;28;20245;-66
2023/10/19 04:30:50;;;;;;;2.30;1.73;;;;;20.90;98222.00;;;;2068963;28;20289;-66
2023/10/19 04:31:54;;;;;;;1.70;1.37;;;;;20.90;98226.00;;;;2069686;28;20210;-66
2023/10/19 04:32:57;;;;;;;2.30;2.05;;;;;20.90;98223.00;;;;2073202;28;20291;-66
2023/10/19 04:33:57;;;;;;;1.77;1.48;;;;;20.90;98216.00;;;;2067754;28;20224;-66
2023/10/19 04:34:58;;;;;;;2.47;1.67;;;;;20.90;98223.00;;;;2080012;28;20210;-65
2023/10/19 04:36:00;;;;;;;1.70;1.13;;;;;20.90;98228.00;;;;2072600;28;20226;-65
2023/10/19 04:37:03;;;;;;;1.40;1.17;;;;;20.90;98224.00;;;;2067481;28;20460;-65
2023/10/19 04:38:06;;;;;;;2.33;1.52;;;;;20.90;98223.00;;;;2067191;28;20210;-65
2023/10/19 04:39:11;;;;;;;2.45;1.38;;;;;20.90;98227.00;;;;2060409;28;20222;-65
2023/10/19 04:40:12;;;;;;;1.90;1.40;;;;;20.90;98221.00;;;;2073401;28;20275;-65
2023/10/19 04:41:12;;;;;;;1.63;1.30;;;;;20.90;98226.00;;;;2068844;28;20781;-65
2023/10/19 04:42:12;;;;;;;1.63;1.53;;;;;20.90;98223.00;;;;2068952;28;20202;-65
2023/10/19 04:43:13;;;;;;;1.90;1.50;;;;;20.90;98224.00;;;;2066271;28;20682;-65
2023/10/19 04:44:15;;;;;;;2.17;1.83;;;;;20.90;98232.00;;;;2069921;28;24160;-65
2023/10/19 04:45:15;;;;;;;2.00;1.50;;;;;20.90;98230.00;;;;2076687;28;20228;-65
2023/10/19 04:46:18;;;;;;;2.97;1.40;;;;;20.90;98230.00;;;;2069983;28;20234;-65
2023/10/19 04:47:18;;;;;;;1.90;1.70;;;;;20.90;98223.00;;;;2063923;28;20230;-65
2023/10/19 04:48:19;;;;;;;2.43;1.60;;;;;20.90;98227.00;;;;2067306;28;20267;-65
2023/10/19 04:49:19;;;;;;;2.40;1.40;;;;;20.90;98234.00;;;;2073485;28;20223;-66
2023/10/19 04:50:19;;;;;;;1.70;1.40;;;;;20.90;98215.00;;;;2078663;28;20213;-66
2023/10/19 04:51:20;;;;;;;1.60;1.40;;;;;20.90;98231.00;;;;2068347;28;20221;-66
2023/10/19 04:52:21;;;;;;;1.75;1.45;;;;;20.90;98229.00;;;;2067798;28;20693;-66
2023/10/19 04:53:21;;;;;;;1.67;1.30;;;;;20.90;98234.00;;;;2071534;28;20222;-64
2023/10/19 04:54:22;;;;;;;2.20;1.60;;;;;20.90;98230.00;;;;2072913;28;20853;-64
2023/10/19 04:55:22;;;;;;;1.60;1.27;;;;;20.90;98219.00;;;;2084661;28;20798;-64
2023/10/19 04:56:22;;;;;;;2.27;1.47;;;;;20.90;98227.00;;;;2067559;28;20718;-64
2023/10/19 04:57:23;;;;;;;1.60;1.40;;;;;20.90;98226.00;;;;2068040;28;20234;-64
2023/10/19 04:58:23;;;;;;;2.17;1.40;;;;;20.90;98227.00;;;;2084283;28;20217;-64
2023/10/19 04:59:23;;;;;;;3.93;1.70;;;;;20.90;98224.00;;;;2069707;28;20217;-64
2023/10/19 05:00:24;;;;;;;3.00;1.40;;;;;20.90;98221.00;;;;2072337;28;20225;-64
2023/10/19 05:01:24;;;;;;;2.30;1.50;;;;;20.90;98220.00;;;;2068053;28;20219;-64
2023/10/19 05:02:25;;;;;;;1.60;1.47;;;;;20.90;98223.00;;;;2068735;28;20210;-66
2023/10/19 05:03:25;;;;;;;2.53;1.53;;;;;20.90;98221.00;;;;2071185;28;20234;-66
2023/10/19 05:04:26;;;;;;;1.70;1.30;;;;;20.90;98235.00;;;;2073000;28;20283;-66
2023/10/19 05:05:27;;;;;;;1.52;1.20;;;;;20.90;98223.00;;;;2080440;28;20638;-66
2023/10/19 05:06:27;;;;;;;1.87;1.20;;;;;20.90;98229.00;;;;2068547;28;20248;-66
2023/10/19 05:07:28;;;;;;;2.03;1.57;;;;;20.90;98220.00;;;;2068986;28;21597;-66
2023/10/19 05:08:30;;;;;;;1.67;1.58;;;;;20.90;98220.00;;;;2069564;28;20210;-65
2023/10/19 05:09:31;;;;;;;2.20;1.27;;;;;20.90;98216.00;;;;2057810;28;20698;-65
2023/10/19 05:10:33;;;;;;;2.50;1.80;;;;;20.90;98225.00;;;;2063430;28;21138;-65
2023/10/19 05:11:33;;;;;;;2.00;1.30;;;;;20.90;98217.00;;;;2062621;28;20306;-65
2023/10/19 05:12:33;;;;;;;2.17;1.37;;;;;20.90;98225.00;;;;2071043;28;20226;-65
2023/10/19 05:13:35;;;;;;;2.00;1.47;;;;;20.90;98230.00;;;;2052828;28;20262;-65
2023/10/19 05:14:35;;;;;;;2.72;1.55;;;;;20.90;98235.00;;;;2078568;28;20217;-65
2023/10/19 05:15:36;;;;;;;2.57;1.50;;;;;20.90;98235.00;;;;2078215;28;20618;-65
2023/10/19 05:16:36;;;;;;;6.03;1.83;;;;;21.00;98233.00;;;;2072646;28;20453;-65
2023/10/19 05:17:36;;;;;;;2.60;1.33;;;;;21.00;98236.00;;;;2071326;28;20257;-65
2023/10/19 05:18:37;;;;;;;1.87;1.20;;;;;21.00;98237.00;;;;2061124;28;20223;-65
2023/10/19 05:19:38;;;;;;;1.67;1.30;;;;;21.00;98237.00;;;;2077027;28;20226;-65
2023/10/19 05:20:40;;;;;;;3.13;1.58;;;;;21.00;98235.00;;;;2073685;28;20557;-65
2023/10/19 05:21:40;;;;;;;1.80;1.27;;;;;21.00;98245.00;;;;2070500;28;20703;-65
2023/10/19 05:22:41;;;;;;;2.40;1.40;;;;;21.00;98243.00;;;;2070596;28;20225;-65
2023/10/19 05:23:41;;;;;;;2.07;1.33;;;;;21.00;98188.00;;;;2063479;28;20241;-65
2023/10/19 05:24:42;;;;;;;2.03;1.60;;;;;21.00;98230.00;;;;2080137;28;20256;-65
2023/10/19 05:25:42;;;;;;;1.90;1.33;;;;;21.00;98240.00;;;;2075316;28;20575;-65